Time;durP1;ratioP1;P1;durP2;ratioP2;P2;SDS_P1;SDS_P2;PMS_P1;PMS_P2;Temp;Humidity;BMP_temperature;BMP_pressure;BME280_temperature;BME280_humidity;BME280_pressure;Samples;Min_cycle;Max_cycle;Signal;HPM_P1;HPM_P2
2021/08/16 00:01:28;;;;;;;2.72;1.50;;;;;;;22.47;34.76;100637.59;2613976;54;20034;-70
2021/08/16 00:04:00;;;;;;;3.53;1.60;;;;;;;22.46;34.36;100646.16;2650014;36;20041;-70
2021/08/16 00:06:30;;;;;;;3.78;1.55;;;;;;;22.36;34.56;100645.75;2614271;54;20039;-70
2021/08/16 00:09:00;;;;;;;3.47;1.42;;;;;;;22.33;34.05;100640.59;2650340;36;20030;-71
2021/08/16 00:11:29;;;;;;;2.80;1.52;;;;;;;22.26;34.11;100639.72;2614106;54;20038;-71
2021/08/16 00:13:59;;;;;;;3.47;1.50;;;;;;;22.17;34.35;100637.13;2649322;36;20077;-70
2021/08/16 00:16:29;;;;;;;3.00;1.33;;;;;;;22.11;34.47;100629.63;2613906;54;20041;-71
2021/08/16 00:19:02;;;;;;;3.05;1.50;;;;;;;22.04;34.13;100634.34;2649654;36;20041;-71
2021/08/16 00:21:31;;;;;;;2.50;1.20;;;;;;;21.94;34.02;100628.34;2613736;54;20041;-71
2021/08/16 00:24:01;;;;;;;2.45;1.20;;;;;;;21.87;34.10;100637.75;2649737;36;20041;-71
2021/08/16 00:26:31;;;;;;;3.13;1.48;;;;;;;21.79;34.09;100639.66;2613136;54;20039;-71
2021/08/16 00:29:02;;;;;;;3.17;1.30;;;;;;;21.72;34.25;100643.50;2649251;36;20042;-70
2021/08/16 00:31:32;;;;;;;2.47;1.08;;;;;;;21.66;34.15;100638.75;2612729;47;20052;-71
2021/08/16 00:34:04;;;;;;;2.85;1.20;;;;;;;21.62;34.08;100641.13;2649550;36;20033;-71
2021/08/16 00:36:34;;;;;;;2.85;1.60;;;;;;;21.50;34.49;100647.47;2613579;54;20038;-71
2021/08/16 00:39:04;;;;;;;2.47;1.20;;;;;;;21.47;34.04;100645.13;2649871;36;20031;-70
2021/08/16 00:41:35;;;;;;;4.00;1.27;;;;;;;21.40;33.77;100645.09;2613817;54;20049;-70
2021/08/16 00:44:08;;;;;;;2.38;1.20;;;;;;;21.34;33.70;100654.25;2649712;36;20030;-71
2021/08/16 00:46:38;;;;;;;4.00;1.23;;;;;;;21.23;33.80;100652.09;2613658;54;20034;-70
2021/08/16 00:49:11;;;;;;;4.90;1.33;;;;;;;21.20;34.01;100650.56;2650156;36;20031;-71
2021/08/16 00:51:41;;;;;;;;;;;;;;;20.85;34.09;100658.06;2613890;54;20038;-71
2021/08/16 00:54:11;;;;;;;4.38;1.40;;;;;;;21.05;33.81;100658.22;2649724;36;19947;-71
2021/08/16 00:56:42;;;;;;;8.15;1.40;;;;;;;21.02;33.67;100656.69;2613920;54;20037;-70
2021/08/16 00:59:13;;;;;;;2.80;1.27;;;;;;;20.96;33.37;100659.44;2613272;54;20046;-70
2021/08/16 01:01:43;;;;;;;2.28;1.10;;;;;;;20.88;33.70;100654.00;2613792;54;20038;-71
2021/08/16 01:04:16;;;;;;;5.10;1.20;;;;;;;20.85;33.70;100657.19;2649954;36;20036;-70
2021/08/16 01:06:46;;;;;;;3.17;1.08;;;;;;;20.77;33.35;100661.00;2613446;54;20074;-70
2021/08/16 01:09:16;;;;;;;4.43;1.45;;;;;;;20.73;33.94;100658.84;2649780;36;20500;-70
2021/08/16 01:11:47;;;;;;;4.15;1.40;;;;;;;20.70;33.96;100665.66;2613435;54;20038;-70
2021/08/16 01:14:18;;;;;;;2.50;1.10;;;;;;;20.67;33.54;100666.91;2650075;36;20030;-70
2021/08/16 01:16:49;;;;;;;4.88;1.33;;;;;;;20.67;33.92;100657.72;2613713;54;20045;-70
2021/08/16 01:19:22;;;;;;;3.78;1.45;;;;;;;20.66;33.99;100659.66;2650009;36;20046;-70
2021/08/16 01:21:52;;;;;;;2.97;1.17;;;;;;;20.60;34.07;100660.44;2614010;54;20044;-70
2021/08/16 01:24:23;;;;;;;2.85;1.25;;;;;;;20.59;34.00;100653.19;2650263;36;20451;-70
2021/08/16 01:26:55;;;;;;;4.13;1.60;;;;;;;20.61;33.77;100662.19;2614078;54;20046;-70
2021/08/16 01:29:25;;;;;;;4.63;1.52;;;;;;;20.53;34.04;100658.69;2632292;36;20050;-70
2021/08/16 01:32:00;;;;;;;4.50;1.35;;;;;;;20.50;34.33;100657.16;2613776;54;20041;-71
2021/08/16 01:34:30;;;;;;;3.65;1.38;;;;;;;20.49;34.09;100661.03;2631986;36;20433;-70
2021/08/16 01:37:01;;;;;;;2.10;1.02;;;;;;;20.45;34.40;100664.41;2613442;54;20039;-70
2021/08/16 01:39:31;;;;;;;2.67;1.15;;;;;;;20.45;34.39;100664.41;2630160;36;20042;-70
2021/08/16 01:42:04;;;;;;;3.30;1.27;;;;;;;20.43;34.01;100661.81;2611612;54;20049;-71
2021/08/16 01:44:34;;;;;;;2.50;1.30;;;;;;;20.36;34.44;100666.47;2630138;36;20039;-70
2021/08/16 01:47:07;;;;;;;4.40;1.33;;;;;;;20.32;34.75;100662.41;2649633;36;20118;-70
2021/08/16 01:49:36;;;;;;;3.25;1.35;;;;;;;20.31;34.60;100657.91;2612449;54;20039;-71
2021/08/16 01:52:07;;;;;;;4.18;1.35;;;;;;;20.31;34.68;100657.91;2649500;36;20034;-71
2021/08/16 01:54:36;;;;;;;3.40;1.40;;;;;;;20.29;35.10;100658.09;2612382;54;20047;-71
2021/08/16 01:57:09;;;;;;;3.67;1.38;;;;;;;20.31;34.76;100667.09;2612856;54;20044;-70
2021/08/16 01:59:38;;;;;;;;;;;;;;;20.02;34.92;100663.56;2630798;36;20030;-71
2021/08/16 02:02:08;;;;;;;2.80;1.20;;;;;;;20.22;34.67;100662.72;2613228;54;19954;-71
2021/08/16 02:04:38;;;;;;;3.03;1.20;;;;;;;20.24;34.80;100659.75;2623772;36;20663;-71
2021/08/16 02:07:08;;;;;;;3.63;1.30;;;;;;;20.22;34.63;100657.19;2649297;36;20657;-71
2021/08/16 02:09:38;;;;;;;3.35;1.30;;;;;;;20.21;34.24;100649.91;2612876;54;20049;-69
2021/08/16 02:12:11;;;;;;;3.72;1.20;;;;;;;20.22;34.95;100650.75;2649305;36;20039;-70
2021/08/16 02:14:40;;;;;;;3.72;1.40;;;;;;;20.16;34.73;100646.84;2612679;54;20038;-70
2021/08/16 02:17:10;;;;;;;3.75;1.30;;;;;;;20.13;34.87;100655.56;2649839;36;20064;-70
2021/08/16 02:19:40;;;;;;;3.72;1.50;;;;;;;20.11;34.70;100648.47;2612051;54;20062;-70
2021/08/16 02:22:10;;;;;;;5.63;1.45;;;;;;;20.09;34.66;100648.69;2650168;36;20440;-70
2021/08/16 02:24:40;;;;;;;6.20;1.73;;;;;;;20.06;34.69;100648.22;2612300;54;20553;-72
2021/08/16 02:27:12;;;;;;;4.45;1.60;;;;;;;20.05;34.66;100644.59;2649275;36;20061;-71
2021/08/16 02:29:42;;;;;;;5.68;1.67;;;;;;;19.98;35.04;100642.81;2612552;54;20063;-71
2021/08/16 02:32:12;;;;;;;6.05;1.85;;;;;;;19.99;34.72;100647.31;2649715;36;20038;-71
2021/08/16 02:34:41;;;;;;;3.70;1.35;;;;;;;19.91;34.83;100638.06;2612296;54;20045;-70
2021/08/16 02:37:11;;;;;;;3.40;1.27;;;;;;;19.89;35.04;100631.00;2649249;36;20034;-70
2021/08/16 02:39:41;;;;;;;4.75;1.90;;;;;;;19.84;34.94;100631.56;2612622;54;20045;-70
2021/08/16 02:42:13;;;;;;;3.88;1.60;;;;;;;19.82;34.92;100633.72;2649470;36;20038;-71
2021/08/16 02:44:45;;;;;;;4.55;1.40;;;;;;;19.75;35.01;100640.25;2612513;54;20031;-70
2021/08/16 02:47:16;;;;;;;3.88;1.65;;;;;;;19.71;34.99;100637.00;2650103;36;20080;-71
2021/08/16 02:49:46;;;;;;;4.03;1.40;;;;;;;19.67;35.20;100644.03;2612346;54;20042;-71
2021/08/16 02:52:15;;;;;;;4.53;1.42;;;;;;;19.65;35.11;100631.38;2648891;36;20045;-71
2021/08/16 02:54:45;;;;;;;4.78;1.50;;;;;;;19.61;35.33;100638.38;2612781;54;20049;-71
2021/08/16 02:57:17;;;;;;;6.10;1.60;;;;;;;19.60;35.31;100636.66;2648517;36;20031;-71
2021/08/16 02:59:47;;;;;;;2.28;1.40;;;;;;;19.52;35.07;100630.19;2612489;54;20038;-71
2021/08/16 03:02:17;;;;;;;4.00;1.35;;;;;;;19.52;34.90;100629.31;2649095;36;20650;-70
2021/08/16 03:04:47;;;;;;;3.67;1.20;;;;;;;19.49;35.57;100622.22;2612280;54;20035;-70
2021/08/16 03:07:17;;;;;;;3.92;1.40;;;;;;;19.48;35.56;100620.50;2649389;36;20038;-71
2021/08/16 03:09:47;;;;;;;3.47;1.63;;;;;;;19.47;35.45;100620.69;2612075;54;20035;-71
2021/08/16 03:12:19;;;;;;;5.40;1.95;;;;;;;19.49;35.50;100613.03;2649183;36;20039;-70
2021/08/16 03:14:49;;;;;;;3.47;1.58;;;;;;;19.45;35.65;100620.88;2612234;54;20035;-71
2021/08/16 03:17:19;;;;;;;5.85;1.75;;;;;;;19.46;35.52;100616.19;2612626;54;20038;-71
2021/08/16 03:19:48;;;;;;;3.80;1.38;;;;;;;19.42;35.60;100615.75;2613067;36;20026;-70
2021/08/16 03:22:18;;;;;;;5.07;1.80;;;;;;;19.41;35.67;100618.72;2649317;36;20058;-71
2021/08/16 03:24:48;;;;;;;4.57;1.60;;;;;;;19.39;35.69;100609.72;2612472;54;20834;-71
2021/08/16 03:27:20;;;;;;;4.10;1.65;;;;;;;19.41;35.86;100613.16;2649249;36;20567;-71
2021/08/16 03:29:50;;;;;;;2.92;1.60;;;;;;;19.35;35.96;100608.41;2612541;54;20061;-71
2021/08/16 03:32:20;;;;;;;3.65;1.65;;;;;;;19.34;35.80;100609.47;2650058;36;20043;-71
2021/08/16 03:34:49;;;;;;;4.03;1.58;;;;;;;19.30;35.87;100599.81;2613279;54;20061;-71
2021/08/16 03:37:19;;;;;;;4.70;1.77;;;;;;;19.28;35.96;100602.78;2650100;36;20050;-71
2021/08/16 03:39:49;;;;;;;3.75;1.60;;;;;;;19.26;36.01;100604.91;2613358;54;20049;-71
2021/08/16 03:42:21;;;;;;;5.60;2.00;;;;;;;19.25;36.43;100605.09;2649807;36;20049;-71
2021/08/16 03:44:51;;;;;;;4.88;1.83;;;;;;;19.16;35.66;100602.44;2612269;54;20045;-70
2021/08/16 03:47:21;;;;;;;3.97;1.40;;;;;;;19.15;36.21;100605.41;2649507;36;20011;-71
2021/08/16 03:49:51;;;;;;;3.60;1.60;;;;;;;19.11;36.44;100604.06;2612614;54;20042;-70
2021/08/16 03:52:21;;;;;;;3.47;1.48;;;;;;;19.08;36.22;100605.31;2613338;54;20058;-71
2021/08/16 03:54:51;;;;;;;3.80;1.70;;;;;;;19.03;36.40;100599.47;2613625;36;20026;-70
2021/08/16 03:57:23;;;;;;;4.57;1.67;;;;;;;19.03;36.46;100618.03;2649491;36;20008;-71
2021/08/16 03:59:53;;;;;;;4.10;1.58;;;;;;;18.95;36.55;100609.81;2613708;39;20435;-71
2021/08/16 04:02:23;;;;;;;3.85;1.40;;;;;;;18.96;36.78;100606.84;2650174;36;20129;-70
2021/08/16 04:04:53;;;;;;;3.67;1.50;;;;;;;18.96;36.85;100603.22;2613367;54;20054;-71
2021/08/16 04:07:23;;;;;;;4.05;1.50;;;;;;;18.96;36.78;100608.75;2649952;36;20426;-70
2021/08/16 04:09:53;;;;;;;4.10;1.75;;;;;;;18.97;37.01;100600.25;2613040;54;20057;-71
2021/08/16 04:12:25;;;;;;;4.35;1.65;;;;;;;18.98;36.67;100604.75;2650094;36;20012;-71
2021/08/16 04:14:55;;;;;;;3.40;1.48;;;;;;;18.93;36.87;100614.72;2613294;39;20512;-70
2021/08/16 04:17:25;;;;;;;2.80;1.38;;;;;;;18.93;36.83;100615.56;2613439;54;20045;-70
2021/08/16 04:19:54;;;;;;;4.82;1.52;;;;;;;18.93;37.11;100615.56;2613519;36;20041;-71
2021/08/16 04:22:24;;;;;;;5.07;1.45;;;;;;;18.93;37.03;100601.72;2650095;36;20030;-71
2021/08/16 04:24:54;;;;;;;4.53;1.73;;;;;;;18.94;36.98;100603.41;2613405;54;20045;-70
2021/08/16 04:27:26;;;;;;;4.43;1.40;;;;;;;18.97;37.35;100608.56;2650220;36;20034;-70
2021/08/16 04:29:56;;;;;;;5.05;1.55;;;;;;;18.92;36.89;100605.53;2612773;54;20030;-71
2021/08/16 04:32:26;;;;;;;4.32;1.48;;;;;;;18.95;37.25;100607.03;2650449;36;20031;-70
2021/08/16 04:34:55;;;;;;;2.50;1.10;;;;;;;18.94;37.22;100616.41;2613121;54;20034;-71
2021/08/16 04:37:25;;;;;;;3.80;1.38;;;;;;;18.94;37.60;100614.50;2650059;36;20035;-71
2021/08/16 04:39:55;;;;;;;4.20;1.48;;;;;;;18.95;37.35;100604.28;2612884;54;20034;-70
2021/08/16 04:42:27;;;;;;;2.85;1.23;;;;;;;18.96;37.56;100611.53;2649770;36;20030;-71
2021/08/16 04:44:57;;;;;;;3.97;1.25;;;;;;;18.92;37.55;100622.16;2613465;54;20035;-70
2021/08/16 04:47:27;;;;;;;4.00;1.52;;;;;;;18.94;37.84;100611.72;2650030;36;20070;-70
2021/08/16 04:49:57;;;;;;;4.03;1.45;;;;;;;18.95;37.69;100620.91;2613301;54;20045;-70
2021/08/16 04:52:27;;;;;;;3.70;1.25;;;;;;;18.94;37.58;100621.94;2649187;36;20038;-71
2021/08/16 04:54:57;;;;;;;4.20;1.58;;;;;;;18.94;37.94;100625.59;2611699;47;20038;-70
2021/08/16 04:57:35;;;;;;;3.28;1.40;;;;;;;18.98;37.84;100614.97;2650448;36;20448;-70
2021/08/16 05:00:07;;;;;;;4.18;1.45;;;;;;;18.95;38.01;100613.44;2613323;46;20039;-70
2021/08/16 05:02:37;;;;;;;5.30;1.53;;;;;;;18.92;37.46;100618.53;2611993;50;20068;-69
2021/08/16 05:05:10;;;;;;;3.95;1.42;;;;;;;18.92;37.91;100622.16;2613330;36;20548;-70
2021/08/16 05:07:41;;;;;;;3.75;1.50;;;;;;;18.91;37.83;100616.81;2650118;36;20054;-69
2021/08/16 05:10:12;;;;;;;3.55;1.45;;;;;;;18.91;37.88;100617.69;2611940;54;20038;-69
2021/08/16 05:12:44;;;;;;;4.03;1.40;;;;;;;18.90;38.21;100621.50;2649184;36;20050;-69
2021/08/16 05:15:14;;;;;;;4.57;1.60;;;;;;;18.88;38.03;100615.28;2613259;54;20039;-76
2021/08/16 05:17:45;;;;;;;4.68;1.48;;;;;;;18.88;38.06;100623.59;2650453;36;20031;-76
2021/08/16 05:20:15;;;;;;;3.05;1.40;;;;;;;18.88;38.42;100620.81;2615043;54;20035;-76
2021/08/16 05:22:48;;;;;;;5.00;1.55;;;;;;;18.89;38.16;100627.22;2651270;36;20061;-76
2021/08/16 05:25:19;;;;;;;5.00;1.40;;;;;;;18.87;38.21;100621.88;2614150;54;20147;-76
2021/08/16 05:27:52;;;;;;;3.58;1.30;;;;;;;18.89;38.52;100630.84;2650624;36;20057;-75
2021/08/16 05:30:22;;;;;;;3.88;1.52;;;;;;;18.88;38.35;100618.03;2614639;54;20061;-75
2021/08/16 05:32:52;;;;;;;3.72;1.55;;;;;;;18.89;38.15;100619.78;2651047;36;20034;-75
2021/08/16 05:35:22;;;;;;;4.90;1.77;;;;;;;18.90;38.46;100623.41;2614853;54;20141;-75
2021/08/16 05:37:52;;;;;;;4.18;1.52;;;;;;;18.90;38.02;100628.94;2650970;36;21007;-76
2021/08/16 05:40:23;;;;;;;3.80;1.40;;;;;;;18.90;38.39;100629.81;2614895;54;20045;-76
2021/08/16 05:42:56;;;;;;;4.25;1.42;;;;;;;18.91;38.39;100626.00;2651799;36;20459;-76
2021/08/16 05:45:26;;;;;;;3.83;1.50;;;;;;;18.88;38.51;100633.81;2615390;54;20129;-76
2021/08/16 05:47:56;;;;;;;5.10;1.70;;;;;;;18.86;38.59;100627.59;2650948;36;20057;-76
2021/08/16 05:50:27;;;;;;;4.22;1.48;;;;;;;18.86;38.78;100634.00;2614310;54;20182;-76
2021/08/16 05:52:57;;;;;;;4.88;1.70;;;;;;;18.85;38.63;100628.69;2652224;36;20082;-76
2021/08/16 05:55:27;;;;;;;4.00;1.48;;;;;;;18.85;39.62;100639.75;2614796;54;20062;-76
2021/08/16 05:57:59;;;;;;;3.85;1.55;;;;;;;18.86;39.22;100634.00;2652196;36;20091;-76
2021/08/16 06:00:29;;;;;;;5.40;1.70;;;;;;;18.83;39.57;100633.53;2616371;54;20037;-76
2021/08/16 06:02:59;;;;;;;4.82;1.60;;;;;;;18.84;39.31;100632.50;2654047;36;20045;-78
2021/08/16 06:05:29;;;;;;;4.13;1.50;;;;;;;18.82;39.40;100629.91;2616833;47;20027;-78
2021/08/16 06:07:59;;;;;;;4.32;1.70;;;;;;;18.81;39.46;100626.28;2654522;36;20026;-78
2021/08/16 06:10:32;;;;;;;2.78;1.25;;;;;;;18.81;39.45;100636.50;2617882;54;20026;-79
2021/08/16 06:13:06;;;;;;;4.40;1.25;;;;;;;18.81;39.75;100628.19;2654719;36;20030;-78
2021/08/16 06:15:35;;;;;;;5.70;1.50;;;;;;;18.75;39.45;100629.78;2618038;47;20114;-78
2021/08/16 06:18:06;;;;;;;2.60;1.40;;;;;;;18.75;39.60;100628.94;2654438;36;20069;-77
2021/08/16 06:20:36;;;;;;;3.92;1.55;;;;;;;18.72;39.64;100624.63;2618033;54;20054;-79
2021/08/16 06:23:07;;;;;;;5.07;1.45;;;;;;;18.71;40.10;100625.66;2654498;36;20027;-78
2021/08/16 06:25:37;;;;;;;3.90;1.63;;;;;;;18.69;39.65;100625.00;2617302;54;20076;-78
2021/08/16 06:28:09;;;;;;;3.65;1.60;;;;;;;18.68;40.13;100616.91;2654391;36;20420;-78
2021/08/16 06:30:39;;;;;;;4.35;1.40;;;;;;;18.63;40.23;100624.91;2618038;54;20113;-78
2021/08/16 06:33:09;;;;;;;3.58;1.55;;;;;;;18.64;40.04;100629.41;2653747;36;20038;-78
2021/08/16 06:35:39;;;;;;;3.22;1.45;;;;;;;18.64;39.72;100623.84;2617439;47;20022;-77
2021/08/16 06:38:19;;;;;;;3.85;1.63;;;;;;;18.65;40.44;100625.56;2653836;36;20026;-77
2021/08/16 06:40:49;;;;;;;3.45;1.48;;;;;;;18.65;40.15;100622.81;2616157;54;20030;-77
2021/08/16 06:43:23;;;;;;;4.20;1.58;;;;;;;18.70;40.41;100637.78;2652556;36;20086;-78
2021/08/16 06:45:54;;;;;;;5.65;1.70;;;;;;;18.68;39.99;100628.84;2616812;54;20058;-78
2021/08/16 06:48:24;;;;;;;4.13;1.60;;;;;;;18.70;39.96;100628.63;2652646;36;20038;-77
2021/08/16 06:50:54;;;;;;;5.15;1.50;;;;;;;18.70;40.18;100626.72;2615678;54;20564;-76
2021/08/16 06:53:24;;;;;;;4.55;1.77;;;;;;;18.71;40.20;100620.13;2653089;36;20027;-78
2021/08/16 06:55:53;;;;;;;6.25;1.67;;;;;;;18.69;40.60;100621.38;2617579;54;20034;-78
2021/08/16 06:58:26;;;;;;;5.65;1.73;;;;;;;18.70;40.48;100621.16;2653797;36;20147;-79
2021/08/16 07:00:56;;;;;;;4.47;1.70;;;;;;;18.68;40.19;100627.97;2616238;47;20042;-78
2021/08/16 07:03:26;;;;;;;3.78;1.30;;;;;;;18.68;40.40;100622.44;2653730;31;20534;-77
2021/08/16 07:05:56;;;;;;;3.70;1.70;;;;;;;18.72;40.56;100618.22;2615964;47;20031;-77
2021/08/16 07:08:26;;;;;;;4.30;1.58;;;;;;;18.70;40.47;100615.63;2653953;36;20034;-77
2021/08/16 07:10:56;;;;;;;4.50;1.80;;;;;;;18.73;41.00;100609.72;2616733;54;20183;-78
2021/08/16 07:13:28;;;;;;;4.35;1.60;;;;;;;18.76;40.94;100614.03;2653463;36;20055;-78
2021/08/16 07:15:58;;;;;;;5.63;1.70;;;;;;;18.75;40.83;100615.06;2616796;54;20030;-78
2021/08/16 07:18:28;;;;;;;3.63;1.63;;;;;;;18.78;40.96;100603.59;2654084;36;20101;-78
2021/08/16 07:20:58;;;;;;;5.20;1.80;;;;;;;18.81;40.95;100609.66;2617452;54;20554;-79
2021/08/16 07:23:31;;;;;;;;;;;;;;;18.58;40.91;100605.22;2654348;36;20038;-78
2021/08/16 07:26:01;;;;;;;4.95;1.90;;;;;;;18.88;40.80;100615.28;2618049;39;20359;-78
2021/08/16 07:28:35;;;;;;;7.63;1.90;;;;;;;18.94;40.83;100620.03;2654345;36;20117;-78
2021/08/16 07:31:06;;;;;;;4.63;1.75;;;;;;;18.96;40.72;100620.72;2616956;54;20027;-79
2021/08/16 07:33:36;;;;;;;4.95;2.00;;;;;;;19.00;40.83;100633.16;2654976;36;20409;-79
2021/08/16 07:36:06;;;;;;;5.65;2.28;;;;;;;19.04;41.18;100634.47;2618490;54;20030;-78
2021/08/16 07:38:36;;;;;;;3.55;2.00;;;;;;;19.04;40.82;100625.28;2654596;36;20133;-78
2021/08/16 07:41:06;;;;;;;3.55;1.70;;;;;;;19.02;40.41;100631.03;2617981;47;20135;-77
2021/08/16 07:43:39;;;;;;;3.50;1.75;;;;;;;19.07;41.28;100636.00;2654568;36;20125;-78
2021/08/16 07:46:11;;;;;;;;;;;;;;;18.79;40.93;100633.91;2618519;54;20038;-78
2021/08/16 07:48:41;;;;;;;2.97;1.50;;;;;;;19.05;40.82;100635.34;2654972;36;19946;-78
2021/08/16 07:51:11;;;;;;;4.28;1.70;;;;;;;19.12;40.90;100639.03;2618530;54;20125;-79
2021/08/16 07:53:40;;;;;;;4.00;2.00;;;;;;;19.16;40.48;100649.56;2654735;36;20022;-78
2021/08/16 07:56:10;;;;;;;4.25;1.50;;;;;;;19.19;40.63;100637.22;2618518;54;20038;-79
2021/08/16 07:58:43;;;;;;;4.13;1.73;;;;;;;19.24;40.57;100647.75;2654845;36;20027;-78
2021/08/16 08:01:13;;;;;;;5.78;2.40;;;;;;;19.24;40.67;100643.06;2618017;54;20030;-78
2021/08/16 08:03:43;;;;;;;3.25;1.52;;;;;;;19.26;40.56;100643.72;2655141;36;20541;-78
2021/08/16 08:06:13;;;;;;;4.43;1.80;;;;;;;19.28;40.54;100647.13;2619018;54;20202;-79
2021/08/16 08:08:43;;;;;;;5.00;1.60;;;;;;;19.30;40.35;100655.28;2655404;36;20031;-79
2021/08/16 08:11:13;;;;;;;4.63;1.45;;;;;;;19.30;40.33;100656.13;2618437;54;20029;-81
2021/08/16 08:13:46;;;;;;;3.35;1.70;;;;;;;19.33;40.15;100652.13;2655721;36;20608;-79
2021/08/16 08:16:19;;;;;;;3.20;1.38;;;;;;;19.31;40.54;100657.00;2619773;31;20504;-80
2021/08/16 08:18:49;;;;;;;3.60;1.67;;;;;;;19.31;40.40;100634.81;2655070;36;20156;-79
2021/08/16 08:21:19;;;;;;;3.72;1.65;;;;;;;19.34;40.26;100640.84;2618972;54;20042;-79
2021/08/16 08:23:48;;;;;;;4.32;1.90;;;;;;;19.35;40.34;100655.56;2655324;36;20135;-79
2021/08/16 08:26:18;;;;;;;3.17;1.67;;;;;;;19.35;40.04;100644.47;2618856;54;20074;-80
2021/08/16 08:28:51;;;;;;;4.00;1.52;;;;;;;19.38;40.39;100652.38;2655007;36;20034;-80
2021/08/16 08:31:21;;;;;;;;;;;;;;;19.09;40.85;100648.63;2619074;54;20027;-80
2021/08/16 08:33:51;;;;;;;3.58;1.42;;;;;;;19.33;40.65;100661.31;2655132;36;19939;-79
2021/08/16 08:36:21;;;;;;;3.05;1.40;;;;;;;19.37;40.58;100657.06;2618900;54;20038;-80
2021/08/16 08:38:51;;;;;;;3.78;1.58;;;;;;;19.40;40.71;100650.28;2654832;36;20111;-79
2021/08/16 08:41:22;;;;;;;5.78;1.90;;;;;;;19.43;40.82;100645.19;2618288;54;20572;-79
2021/08/16 08:43:55;;;;;;;4.68;1.42;;;;;;;19.47;41.43;100651.22;2654542;36;20094;-79
2021/08/16 08:46:26;;;;;;;3.00;1.50;;;;;;;19.47;41.01;100651.22;2618978;39;20147;-78
2021/08/16 08:48:56;;;;;;;2.90;1.70;;;;;;;19.52;40.67;100648.72;2654863;36;20968;-77
2021/08/16 08:51:26;;;;;;;3.88;1.63;;;;;;;19.55;40.79;100642.81;2617581;47;20035;-79
2021/08/16 08:53:56;;;;;;;4.20;1.67;;;;;;;19.58;40.71;100647.97;2654979;36;20366;-78
2021/08/16 08:56:46;;;;;;;3.60;1.52;;;;;;;19.64;40.79;100654.63;2618587;54;20154;-78
2021/08/16 08:59:19;;;;;;;3.28;1.52;;;;;;;19.69;41.13;100657.66;2654227;36;20026;-78
2021/08/16 09:01:54;;;;;;;3.50;1.50;;;;;;;19.69;40.61;100663.22;2618499;54;20030;-78
2021/08/16 09:04:24;;;;;;;2.22;1.27;;;;;;;19.70;40.52;100651.06;2654613;36;20030;-78
2021/08/16 09:06:54;;;;;;;4.30;1.75;;;;;;;19.71;40.62;100658.34;2618540;54;20030;-76
2021/08/16 09:09:24;;;;;;;3.38;1.50;;;;;;;19.75;40.79;100656.91;2654470;36;20525;-78
2021/08/16 09:11:55;;;;;;;4.13;1.52;;;;;;;19.79;41.00;100656.31;2618256;54;20053;-77
2021/08/16 09:14:28;;;;;;;3.35;1.67;;;;;;;19.86;40.52;100650.81;2649820;36;20038;-77
2021/08/16 09:16:59;;;;;;;3.55;1.42;;;;;;;19.84;40.58;100639.91;2618566;54;20033;-78
2021/08/16 09:19:29;;;;;;;4.57;1.88;;;;;;;19.89;40.61;100642.09;2635465;36;20030;-77
2021/08/16 09:22:05;;;;;;;3.83;1.80;;;;;;;19.95;40.23;100649.63;2616996;47;20552;-78
2021/08/16 09:24:36;;;;;;;3.47;1.48;;;;;;;19.93;40.42;100655.38;2635308;36;20555;-78
2021/08/16 09:27:08;;;;;;;4.60;1.50;;;;;;;19.97;40.03;100652.22;2654216;36;20459;-78
2021/08/16 09:29:51;;;;;;;3.53;1.43;;;;;;;19.97;39.87;100653.06;2616658;54;20022;-78
2021/08/16 09:32:23;;;;;;;3.08;1.48;;;;;;;19.94;39.82;100645.97;2654250;36;20739;-76
2021/08/16 09:34:53;;;;;;;3.92;1.50;;;;;;;19.92;39.72;100644.47;2616329;54;20037;-78
2021/08/16 09:37:25;;;;;;;4.45;1.55;;;;;;;19.97;39.93;100654.97;2653868;36;20130;-78
2021/08/16 09:40:06;;;;;;;2.88;1.48;;;;;;;19.97;39.81;100647.50;2617352;39;20513;-77
2021/08/16 09:42:47;;;;;;;4.20;1.60;;;;;;;19.97;40.26;100647.50;2653212;36;20054;-77
2021/08/16 09:45:30;;;;;;;5.45;1.63;;;;;;;19.99;40.30;100639.00;2616566;54;20568;-78
2021/08/16 09:48:01;;;;;;;3.03;1.50;;;;;;;19.95;40.30;100655.16;2653020;36;20038;-77
2021/08/16 09:50:41;;;;;;;3.80;1.63;;;;;;;20.01;40.34;100648.00;2616893;54;20642;-77
2021/08/16 09:53:15;;;;;;;3.65;1.50;;;;;;;20.04;39.88;100640.09;2653421;36;20027;-78
2021/08/16 09:55:47;;;;;;;5.40;1.48;;;;;;;20.05;40.42;100639.03;2616416;54;20065;-77
2021/08/16 09:58:19;;;;;;;3.15;1.83;;;;;;;20.08;40.11;100648.91;2654237;36;20129;-77
2021/08/16 10:00:54;;;;;;;5.70;1.80;;;;;;;20.10;40.09;100641.22;2617090;54;20061;-77
2021/08/16 10:03:26;;;;;;;2.97;1.63;;;;;;;20.09;39.93;100650.63;2653488;36;20530;-77
2021/08/16 10:05:58;;;;;;;4.05;2.05;;;;;;;20.07;40.11;100652.72;2618327;54;20026;-77
2021/08/16 10:08:29;;;;;;;3.78;2.00;;;;;;;20.11;40.25;100662.38;2656035;36;20030;-76
2021/08/16 10:10:59;;;;;;;4.10;2.15;;;;;;;20.12;40.57;100666.88;2626036;54;20027;-77
2021/08/16 10:13:30;;;;;;;2.65;1.55;;;;;;;20.06;40.62;100673.22;2654486;36;20041;-77
2021/08/16 10:16:08;;;;;;;4.00;2.10;;;;;;;20.06;41.36;100670.44;2616581;54;20038;-77
2021/08/16 10:18:46;;;;;;;4.13;1.95;;;;;;;20.04;41.38;100667.88;2652514;36;20118;-77
2021/08/16 10:21:21;;;;;;;3.75;2.10;;;;;;;20.03;41.69;100663.38;2616518;54;20030;-77
2021/08/16 10:23:52;;;;;;;3.42;1.85;;;;;;;20.00;41.05;100663.78;2653603;31;20551;-77
2021/08/16 10:26:30;;;;;;;2.92;1.80;;;;;;;20.03;41.89;100673.63;2615708;47;20053;-76
2021/08/16 10:29:02;;;;;;;3.08;1.50;;;;;;;20.02;41.08;100680.22;2652251;36;20038;-77
2021/08/16 10:31:36;;;;;;;3.15;1.63;;;;;;;20.03;41.90;100688.34;2615971;54;20553;-77
2021/08/16 10:34:07;;;;;;;3.33;1.55;;;;;;;20.01;41.40;100687.69;2652382;36;20057;-75
2021/08/16 10:36:37;;;;;;;4.15;1.85;;;;;;;20.00;41.63;100696.25;2616007;54;20035;-76
2021/08/16 10:39:07;;;;;;;4.28;1.73;;;;;;;19.99;41.78;100694.53;2652205;36;20030;-75
2021/08/16 10:41:42;;;;;;;3.55;1.90;;;;;;;19.98;42.02;100692.78;2617067;54;20038;-78
2021/08/16 10:44:14;;;;;;;3.53;1.75;;;;;;;19.93;42.47;100702.56;2654637;36;20050;-79
2021/08/16 10:46:48;;;;;;;3.78;1.92;;;;;;;19.91;42.60;100714.94;2620269;54;20049;-69
2021/08/16 10:49:18;;;;;;;4.18;1.67;;;;;;;19.87;42.51;100714.47;2653188;36;20031;-69
2021/08/16 10:51:50;;;;;;;2.80;1.30;;;;;;;19.87;42.56;100714.47;2615649;54;20543;-68
2021/08/16 10:54:27;;;;;;;2.20;1.10;;;;;;;19.85;42.63;100721.25;2652623;36;20038;-68
2021/08/16 10:56:59;;;;;;;1.48;0.90;;;;;;;19.81;42.23;100717.19;2616320;54;20072;-68
2021/08/16 10:59:30;;;;;;;2.08;1.00;;;;;;;19.75;42.08;100724.38;2634195;36;20022;-69
2021/08/16 11:02:03;;;;;;;1.45;0.80;;;;;;;19.74;42.86;100730.13;2615929;54;20027;-68
2021/08/16 11:04:35;;;;;;;2.42;1.00;;;;;;;19.70;42.51;100724.09;2634227;36;20064;-69
2021/08/16 11:07:07;;;;;;;1.75;1.00;;;;;;;19.69;42.82;100719.59;2616224;54;20031;-69
2021/08/16 11:09:39;;;;;;;2.10;1.20;;;;;;;19.66;42.90;100721.91;2633877;36;20058;-69
2021/08/16 11:12:11;;;;;;;2.75;1.30;;;;;;;19.63;42.86;100725.06;2653166;36;20126;-69
2021/08/16 11:14:45;;;;;;;2.43;1.30;;;;;;;19.63;43.09;100727.84;2616692;39;20455;-68
2021/08/16 11:17:17;;;;;;;1.50;0.95;;;;;;;19.65;42.83;100731.28;2652344;36;20291;-68
2021/08/16 11:19:49;;;;;;;2.60;1.40;;;;;;;19.60;42.44;100731.00;2616198;54;20034;-68
2021/08/16 11:22:19;;;;;;;2.00;1.17;;;;;;;19.58;42.55;100742.31;2652159;36;20038;-69
2021/08/16 11:24:49;;;;;;;2.70;1.20;;;;;;;19.56;42.75;100739.72;2615479;46;20074;-69
2021/08/16 11:27:21;;;;;;;2.63;1.40;;;;;;;19.52;42.76;100738.38;2652922;36;20045;-69
2021/08/16 11:29:59;;;;;;;3.58;1.40;;;;;;;19.52;43.34;100745.84;2613574;54;20570;-67
2021/08/16 11:32:33;;;;;;;2.42;1.45;;;;;;;19.51;43.40;100739.44;2651579;36;20033;-68
2021/08/16 11:35:03;;;;;;;2.78;1.30;;;;;;;19.46;42.68;100750.22;2614928;54;20042;-69
2021/08/16 11:37:35;;;;;;;2.65;1.45;;;;;;;19.44;42.54;100744.00;2615896;54;20046;-68
2021/08/16 11:40:07;;;;;;;2.63;1.57;;;;;;;19.41;42.91;100743.53;2615738;54;20126;-67
2021/08/16 11:42:51;;;;;;;2.88;1.52;;;;;;;19.37;43.04;100743.06;2652109;36;20069;-67
2021/08/16 11:45:22;;;;;;;4.13;1.50;;;;;;;19.36;43.00;100746.88;2615221;54;20061;-67